createdAt,value
2023-02-11T00:00:22.296Z,-3.04
2023-02-11T00:02:49.210Z,-3.02
2023-02-11T00:05:16.081Z,-3.05
2023-02-11T00:07:42.824Z,-3.05
2023-02-11T00:10:09.794Z,-3.00
2023-02-11T00:12:38.206Z,-3.03
2023-02-11T00:15:07.911Z,-3.07
2023-02-11T00:17:34.708Z,-3.12
2023-02-11T00:20:01.496Z,-3.14
2023-02-11T00:22:28.371Z,-3.16
2023-02-11T00:24:57.218Z,-3.19
2023-02-11T00:27:23.988Z,-3.19
2023-02-11T00:29:50.744Z,-3.23
2023-02-11T00:32:17.545Z,-3.24
2023-02-11T00:34:44.316Z,-3.22
2023-02-11T00:37:12.139Z,-3.21
2023-02-11T00:39:38.966Z,-3.24
2023-02-11T00:42:05.775Z,-3.26
2023-02-11T00:44:32.651Z,-3.28
2023-02-11T00:46:59.387Z,-3.31
2023-02-11T00:49:26.131Z,-3.33
2023-02-11T00:51:52.864Z,-3.34
2023-02-11T00:54:19.699Z,-3.34
2023-02-11T00:56:46.520Z,-3.34
2023-02-11T00:59:13.240Z,-3.34
2023-02-11T01:01:40.150Z,-3.30
2023-02-11T01:04:07.114Z,-3.34
2023-02-11T01:06:33.895Z,-3.33
2023-02-11T01:09:00.648Z,-3.33
2023-02-11T01:11:27.399Z,-3.33
2023-02-11T01:13:54.184Z,-3.34
2023-02-11T01:16:22.092Z,-3.33
2023-02-11T01:18:49.344Z,-3.41
2023-02-11T01:21:16.267Z,-3.44
2023-02-11T01:23:43.110Z,-3.43
2023-02-11T01:26:09.850Z,-3.44
2023-02-11T01:28:36.833Z,-3.46
2023-02-11T01:31:04.441Z,-3.47
2023-02-11T01:33:31.755Z,-3.46
2023-02-11T01:36:05.904Z,-3.42
2023-02-11T01:38:33.887Z,-3.51
2023-02-11T01:41:04.955Z,-3.52
2023-02-11T01:43:38.384Z,-3.53
2023-02-11T01:46:20.296Z,-3.51
2023-02-11T01:48:49.559Z,-3.49
2023-02-11T01:51:24.305Z,-3.57
2023-02-11T01:54:10.832Z,-3.59
2023-02-11T01:57:01.178Z,-3.59
2023-02-11T01:59:33.471Z,-3.55
2023-02-11T02:02:05.780Z,-3.53
2023-02-11T02:04:38.956Z,-3.44
2023-02-11T02:07:14.465Z,-3.38
2023-02-11T02:09:48.671Z,-3.35
2023-02-11T02:12:15.430Z,-3.32
2023-02-11T02:14:42.880Z,-3.30
2023-02-11T02:17:25.180Z,-3.26
2023-02-11T02:20:15.069Z,-3.26
2023-02-11T02:23:05.934Z,-3.20
2023-02-11T02:25:35.322Z,-3.19
2023-02-11T02:28:37.276Z,-3.11
2023-02-11T02:31:10.116Z,-3.14
2023-02-11T02:33:55.824Z,-3.13
2023-02-11T02:36:44.882Z,-3.13
2023-02-11T02:39:26.416Z,-3.14
2023-02-11T02:41:54.498Z,-3.18
2023-02-11T02:44:21.819Z,-3.13
2023-02-11T02:46:48.909Z,-3.15
2023-02-11T02:49:17.071Z,-3.12
2023-02-11T02:52:20.950Z,-3.03
2023-02-11T02:54:56.493Z,-3.06
2023-02-11T02:57:37.995Z,-3.09
2023-02-11T03:00:29.769Z,-3.08
2023-02-11T03:03:49.969Z,-3.03
2023-02-11T03:06:16.655Z,-3.09
2023-02-11T03:09:12.925Z,-3.11
2023-02-11T03:11:40.737Z,-3.15
2023-02-11T03:14:12.954Z,-3.13
2023-02-11T03:16:39.970Z,-3.14
2023-02-11T03:19:11.217Z,-3.17
2023-02-11T03:21:40.579Z,-3.20
2023-02-11T03:24:13.306Z,-3.22
2023-02-11T03:26:53.613Z,-3.18
2023-02-11T03:29:36.882Z,-3.26
2023-02-11T03:32:23.202Z,-3.31
2023-02-11T03:35:00.984Z,-3.33
2023-02-11T03:37:32.897Z,-3.41
2023-02-11T03:40:02.479Z,-3.41
2023-02-11T03:42:35.239Z,-3.44
2023-02-11T03:45:08.636Z,-3.46
2023-02-11T03:47:38.767Z,-3.52
2023-02-11T03:50:08.596Z,-3.53
2023-02-11T03:52:38.074Z,-3.59
2023-02-11T03:55:11.271Z,-3.55
2023-02-11T03:57:38.588Z,-3.63
2023-02-11T04:00:06.816Z,-3.66
2023-02-11T04:02:36.667Z,-3.69
2023-02-11T04:05:04.749Z,-3.74
2023-02-11T04:07:31.584Z,-3.75
2023-02-11T04:09:58.540Z,-3.76
2023-02-11T04:12:26.128Z,-3.80
2023-02-11T04:14:52.872Z,-3.83
2023-02-11T04:17:19.641Z,-3.80
2023-02-11T04:19:46.470Z,-3.87
2023-02-11T04:22:13.252Z,-3.94
2023-02-11T04:24:40.224Z,-3.96
2023-02-11T04:27:07.010Z,-3.96
2023-02-11T04:29:33.841Z,-3.91
2023-02-11T04:32:00.613Z,-3.97
2023-02-11T04:34:28.029Z,-4.04
2023-02-11T04:36:54.865Z,-4.03
2023-02-11T04:39:21.585Z,-4.09
2023-02-11T04:41:48.411Z,-4.11
2023-02-11T04:44:15.289Z,-4.10
2023-02-11T04:46:42.061Z,-4.13
2023-02-11T04:49:09.874Z,-4.14
2023-02-11T04:51:36.598Z,-4.13
2023-02-11T04:54:03.415Z,-4.13
2023-02-11T04:56:30.289Z,-4.11
2023-02-11T04:58:57.062Z,-4.18
2023-02-11T05:01:23.816Z,-4.16
2023-02-11T05:03:51.156Z,-4.17
2023-02-11T05:06:18.292Z,-4.18
2023-02-11T05:08:45.074Z,-4.19
2023-02-11T05:11:17.595Z,-4.15
2023-02-11T05:13:44.589Z,-4.13
2023-02-11T05:16:11.986Z,-4.10
2023-02-11T05:18:40.393Z,-4.10
2023-02-11T05:21:12.630Z,-4.07
2023-02-11T05:23:40.100Z,-4.07
2023-02-11T05:26:07.017Z,-4.07
2023-02-11T05:28:34.264Z,-4.01
2023-02-11T05:31:01.354Z,-4.00
2023-02-11T05:33:28.390Z,-3.99
2023-02-11T05:36:06.632Z,-3.96
2023-02-11T05:38:34.109Z,-3.97
2023-02-11T05:41:01.418Z,-4.01
2023-02-11T05:43:28.356Z,-3.99
2023-02-11T05:45:55.216Z,-3.94
2023-02-11T05:48:22.016Z,-3.94
2023-02-11T05:50:49.262Z,-3.97
2023-02-11T05:53:16.042Z,-4.00
2023-02-11T05:55:42.915Z,-3.95
2023-02-11T05:58:10.190Z,-3.98
2023-02-11T06:00:37.078Z,-3.95
2023-02-11T06:03:04.596Z,-3.97
2023-02-11T06:05:31.756Z,-3.98
2023-02-11T06:07:58.698Z,-4.01
2023-02-11T06:10:25.513Z,-4.05
2023-02-11T06:12:52.250Z,-4.11
2023-02-11T06:15:19.092Z,-4.11
2023-02-11T06:17:45.858Z,-4.09
2023-02-11T06:20:12.694Z,-4.05
2023-02-11T06:22:39.467Z,-4.04
2023-02-11T06:25:06.514Z,-4.14
2023-02-11T06:27:33.314Z,-4.19
2023-02-11T06:30:00.208Z,-4.13
2023-02-11T06:32:44.058Z,-4.12
2023-02-11T06:35:12.875Z,-4.11
2023-02-11T06:37:40.705Z,-4.14
2023-02-11T06:40:07.817Z,-4.14
2023-02-11T06:42:36.188Z,-4.11
2023-02-11T06:45:06.101Z,-4.16
2023-02-11T06:47:33.086Z,-4.17
2023-02-11T06:49:59.976Z,-4.14
2023-02-11T06:52:26.709Z,-4.09
2023-02-11T06:54:53.474Z,-4.09
2023-02-11T06:57:20.250Z,-3.98
2023-02-11T06:59:46.973Z,-4.07
2023-02-11T07:02:13.827Z,-4.05
2023-02-11T07:04:40.699Z,-4.00
2023-02-11T07:07:07.481Z,-3.95
2023-02-11T07:09:34.333Z,-4.07
2023-02-11T07:12:01.067Z,-4.08
2023-02-11T07:14:27.815Z,-3.96
2023-02-11T07:16:54.610Z,-3.90
2023-02-11T07:19:21.396Z,-3.80
2023-02-11T07:21:48.833Z,-3.84
2023-02-11T07:24:17.243Z,-3.82
2023-02-11T07:26:44.856Z,-3.72
2023-02-11T07:29:11.776Z,-3.72
2023-02-11T07:31:38.812Z,-3.77
2023-02-11T07:34:05.629Z,-3.84
2023-02-11T07:36:32.758Z,-3.80
2023-02-11T07:39:00.352Z,-3.75
2023-02-11T07:41:27.677Z,-3.80
2023-02-11T07:43:54.747Z,-3.84
2023-02-11T07:46:27.090Z,-3.69
2023-02-11T07:48:55.013Z,-3.71
2023-02-11T07:51:27.356Z,-3.61
2023-02-11T07:53:55.622Z,-3.65
2023-02-11T07:56:23.714Z,-3.65
2023-02-11T07:58:50.941Z,-3.52
2023-02-11T08:01:25.018Z,-3.59
2023-02-11T08:03:52.064Z,-3.58
2023-02-11T08:06:20.537Z,-3.42
2023-02-11T08:08:47.925Z,-3.42
2023-02-11T08:11:26.369Z,-3.31
2023-02-11T08:13:54.506Z,-3.39
2023-02-11T08:16:29.900Z,-3.57
2023-02-11T08:18:58.880Z,-3.63
2023-02-11T08:21:26.416Z,-3.61
2023-02-11T08:23:55.133Z,-3.60
2023-02-11T08:26:26.177Z,-3.43
2023-02-11T08:28:55.606Z,-3.34
2023-02-11T08:31:25.715Z,-3.27
2023-02-11T08:33:54.678Z,-3.21
2023-02-11T08:36:23.459Z,-3.16
2023-02-11T08:38:50.510Z,-3.10
2023-02-11T08:41:18.087Z,-3.03
2023-02-11T08:43:46.019Z,-2.90
2023-02-11T08:46:16.556Z,-2.94
2023-02-11T08:48:43.782Z,-3.07
2023-02-11T08:51:14.760Z,-3.10
2023-02-11T08:53:41.661Z,-3.31
2023-02-11T08:56:13.326Z,-3.34
2023-02-11T08:58:40.352Z,-3.23
2023-02-11T09:01:25.908Z,-3.20
2023-02-11T09:03:53.294Z,-3.30
2023-02-11T09:06:20.799Z,-3.26
2023-02-11T09:08:50.308Z,-3.20
2023-02-11T09:11:19.433Z,-3.17
2023-02-11T09:13:47.094Z,-3.05
2023-02-11T09:16:22.977Z,-3.00
2023-02-11T09:18:50.604Z,-3.19
2023-02-11T09:21:19.274Z,-3.26
2023-02-11T09:23:47.966Z,-3.29
2023-02-11T09:26:27.654Z,-3.40
2023-02-11T09:28:55.268Z,-3.39
2023-02-11T09:31:25.290Z,-3.34
2023-02-11T09:33:55.342Z,-3.30
2023-02-11T09:36:25.615Z,-3.41
2023-02-11T09:38:53.467Z,-3.46
2023-02-11T09:41:46.485Z,-3.41
2023-02-11T09:44:33.300Z,-3.46
2023-02-11T09:47:02.897Z,-3.55
2023-02-11T09:49:49.078Z,-3.56
2023-02-11T09:52:40.277Z,-3.59
2023-02-11T09:55:21.308Z,-3.52
2023-02-11T09:57:48.702Z,-3.47
2023-02-11T10:00:18.329Z,-3.34
2023-02-11T10:03:12.300Z,-3.35
2023-02-11T10:06:32.536Z,-3.35
2023-02-11T10:09:29.717Z,-3.30
2023-02-11T10:12:32.082Z,-3.36
2023-02-11T10:15:21.195Z,-3.37
2023-02-11T10:18:29.851Z,-3.33
2023-02-11T10:21:12.640Z,-3.35
2023-02-11T10:23:45.103Z,-3.39
2023-02-11T10:26:17.432Z,-3.49
2023-02-11T10:28:52.249Z,-3.37
2023-02-11T10:31:25.790Z,-3.40
2023-02-11T10:34:03.743Z,-3.31
2023-02-11T10:36:36.408Z,-3.35
2023-02-11T10:39:20.141Z,-3.28
2023-02-11T10:41:53.251Z,-3.24
2023-02-11T10:44:37.840Z,-3.27
2023-02-11T10:47:13.695Z,-3.15
2023-02-11T10:49:43.359Z,-3.13
2023-02-11T10:52:22.306Z,-3.15
2023-02-11T10:55:00.012Z,-3.02
2023-02-11T10:57:34.478Z,-2.99
2023-02-11T11:00:27.445Z,-2.83
2023-02-11T11:02:57.382Z,-2.85
2023-02-11T11:05:33.106Z,-2.83
2023-02-11T11:08:05.925Z,-2.84
2023-02-11T11:11:10.228Z,-2.89
2023-02-11T11:14:00.634Z,-2.75
2023-02-11T11:16:32.324Z,-2.77
2023-02-11T11:19:08.024Z,-2.73
2023-02-11T11:21:42.038Z,-2.72
2023-02-11T11:24:27.927Z,-2.63
2023-02-11T11:26:58.196Z,-2.67
2023-02-11T11:29:35.377Z,-2.70
2023-02-11T11:32:05.919Z,-2.84
2023-02-11T11:34:37.277Z,-2.82
2023-02-11T11:37:14.056Z,-2.73
2023-02-11T11:39:41.327Z,-2.79
2023-02-11T11:42:28.571Z,-2.73
2023-02-11T11:45:04.703Z,-2.80
2023-02-11T11:47:31.399Z,-2.93
2023-02-11T11:50:06.920Z,-2.96
2023-02-11T11:52:40.625Z,-3.03
2023-02-11T11:55:07.960Z,-3.11
2023-02-11T11:57:37.934Z,-3.10
2023-02-11T12:00:05.616Z,-3.01
2023-02-11T12:03:09.977Z,-2.97
2023-02-11T12:05:47.031Z,-3.09
2023-02-11T12:08:16.740Z,-3.11
2023-02-11T12:10:53.935Z,-3.20
2023-02-11T12:13:39.508Z,-3.30
2023-02-11T12:16:31.355Z,-3.24
2023-02-11T12:19:04.070Z,-3.21
2023-02-11T12:21:36.570Z,-3.22
2023-02-11T12:24:41.971Z,-3.22
2023-02-11T12:27:18.807Z,-3.18
2023-02-11T12:29:57.745Z,-3.13
2023-02-11T12:33:22.814Z,-3.27
2023-02-11T12:35:52.379Z,-3.26
2023-02-11T12:38:40.867Z,-3.13
2023-02-11T12:41:39.566Z,-3.11
2023-02-11T12:44:12.584Z,-3.13
2023-02-11T12:47:09.393Z,-3.11
2023-02-11T12:49:52.247Z,-3.16
2023-02-11T12:52:50.780Z,-3.14
2023-02-11T12:55:25.704Z,-3.19
2023-02-11T12:57:56.653Z,-3.16
2023-02-11T13:00:45.274Z,-3.08
2023-02-11T13:03:35.098Z,-3.12
2023-02-11T13:06:13.199Z,-3.21
2023-02-11T13:08:47.670Z,-3.21
2023-02-11T13:11:27.768Z,-3.21
2023-02-11T13:14:15.372Z,-3.21
2023-02-11T13:16:47.285Z,-3.11
2023-02-11T13:19:14.100Z,-3.12
2023-02-11T13:21:52.107Z,-3.13
2023-02-11T13:24:56.180Z,-3.10
2023-02-11T13:27:31.977Z,-3.19
2023-02-11T13:30:39.409Z,-3.18
2023-02-11T13:33:33.048Z,-3.14
2023-02-11T13:36:00.328Z,-3.23
2023-02-11T13:38:29.874Z,-3.27
2023-02-11T13:41:24.897Z,-3.24
2023-02-11T13:44:03.943Z,-3.24
2023-02-11T13:46:49.969Z,-3.32
2023-02-11T13:49:40.715Z,-3.37
2023-02-11T13:52:26.879Z,-3.43
2023-02-11T13:54:56.674Z,-3.52
2023-02-11T13:57:30.767Z,-3.53
2023-02-11T14:00:06.189Z,-3.57
2023-02-11T14:02:56.410Z,-3.63
2023-02-11T14:05:50.894Z,-3.61
2023-02-11T14:08:42.745Z,-3.59
2023-02-11T14:11:29.598Z,-3.59
2023-02-11T14:14:03.875Z,-3.55
2023-02-11T14:16:37.818Z,-3.57
2023-02-11T14:19:06.366Z,-3.58
2023-02-11T14:21:37.695Z,-3.57
2023-02-11T14:24:04.999Z,-3.60
2023-02-11T14:26:53.647Z,-3.59
2023-02-11T14:29:35.273Z,-3.62
2023-02-11T14:32:07.390Z,-3.65
2023-02-11T14:34:41.262Z,-3.61
2023-02-11T14:37:22.576Z,-3.63
2023-02-11T14:40:09.356Z,-3.62
2023-02-11T14:42:38.400Z,-3.66
2023-02-11T14:45:10.898Z,-3.62
2023-02-11T14:47:50.656Z,-3.57
2023-02-11T14:50:28.185Z,-3.53
2023-02-11T14:52:56.412Z,-3.56
2023-02-11T14:55:36.918Z,-3.55
2023-02-11T14:58:14.540Z,-3.49
2023-02-11T15:01:43.370Z,-3.47
2023-02-11T15:04:23.917Z,-3.45
2023-02-11T15:06:51.499Z,-3.45
2023-02-11T15:09:18.525Z,-3.47
2023-02-11T15:11:49.563Z,-3.44
2023-02-11T15:14:25.052Z,-3.41
2023-02-11T15:16:54.875Z,-3.44
2023-02-11T15:19:34.482Z,-3.43
2023-02-11T15:22:05.913Z,-3.45
2023-02-11T15:24:35.362Z,-3.44
2023-02-11T15:27:08.173Z,-3.39
2023-02-11T15:29:39.853Z,-3.35
2023-02-11T15:32:09.465Z,-3.35
2023-02-11T15:34:37.371Z,-3.34
2023-02-11T15:37:06.447Z,-3.34
2023-02-11T15:39:42.143Z,-3.31
2023-02-11T15:42:28.343Z,-3.27
2023-02-11T15:45:30.766Z,-3.29
2023-02-11T15:48:11.588Z,-3.31
2023-02-11T15:50:41.318Z,-3.33
2023-02-11T15:53:25.634Z,-3.31
2023-02-11T15:56:02.828Z,-3.33
2023-02-11T15:58:32.917Z,-3.32
2023-02-11T16:01:00.087Z,-3.35
2023-02-11T16:03:32.516Z,-3.33
2023-02-11T16:06:25.017Z,-3.29
2023-02-11T16:09:21.453Z,-3.27
2023-02-11T16:11:48.214Z,-3.31
2023-02-11T16:14:30.095Z,-3.24
2023-02-11T16:17:03.852Z,-3.28
2023-02-11T16:19:33.149Z,-3.28
2023-02-11T16:22:07.815Z,-3.27
2023-02-11T16:24:37.551Z,-3.27
2023-02-11T16:27:16.576Z,-3.23
2023-02-11T16:29:47.954Z,-3.23
2023-02-11T16:32:21.735Z,-3.24
2023-02-11T16:34:49.118Z,-3.26
2023-02-11T16:37:16.114Z,-3.27
2023-02-11T16:39:42.968Z,-3.26
2023-02-11T16:42:11.493Z,-3.24
2023-02-11T16:44:38.793Z,-3.25
2023-02-11T16:47:11.044Z,-3.23
2023-02-11T16:49:41.673Z,-3.24
2023-02-11T16:52:13.524Z,-3.27
2023-02-11T16:54:40.181Z,-3.20
2023-02-11T16:57:29.554Z,-3.21
2023-02-11T16:59:58.235Z,-3.28
2023-02-11T17:02:36.238Z,-3.23
2023-02-11T17:05:07.953Z,-3.25
2023-02-11T17:07:35.399Z,-3.26
2023-02-11T17:10:02.324Z,-3.22
2023-02-11T17:12:30.719Z,-3.27
2023-02-11T17:14:57.594Z,-3.24
2023-02-11T17:17:24.456Z,-3.27
2023-02-11T17:19:51.427Z,-3.24
2023-02-11T17:22:19.217Z,-3.22
2023-02-11T17:24:46.225Z,-3.20
2023-02-11T17:27:15.304Z,-3.20
2023-02-11T17:29:42.078Z,-3.19
2023-02-11T17:32:08.897Z,-3.19
2023-02-11T17:34:35.757Z,-3.18
2023-02-11T17:37:08.882Z,-3.19
2023-02-11T17:39:40.208Z,-3.21
2023-02-11T17:42:08.569Z,-3.22
2023-02-11T17:44:35.704Z,-3.20
2023-02-11T17:47:02.556Z,-3.18
2023-02-11T17:49:29.459Z,-3.16
2023-02-11T17:51:56.796Z,-3.16
2023-02-11T17:54:24.792Z,-3.17
2023-02-11T17:56:55.215Z,-3.13
2023-02-11T17:59:25.276Z,-3.11
2023-02-11T18:01:52.051Z,-3.10
2023-02-11T18:04:19.934Z,-3.10
2023-02-11T18:06:47.346Z,-3.13
2023-02-11T18:09:14.240Z,-3.08
2023-02-11T18:11:41.740Z,-3.07
2023-02-11T18:14:10.086Z,-3.07
2023-02-11T18:16:39.445Z,-3.03
2023-02-11T18:19:07.737Z,-3.03
2023-02-11T18:21:34.833Z,-3.01
2023-02-11T18:24:06.520Z,-3.01
2023-02-11T18:26:34.506Z,-2.98
2023-02-11T18:29:01.373Z,-2.99
2023-02-11T18:31:28.461Z,-3.00
2023-02-11T18:33:55.598Z,-3.01
2023-02-11T18:36:23.242Z,-3.00
2023-02-11T18:38:52.660Z,-3.00
2023-02-11T18:41:19.517Z,-2.99
2023-02-11T18:43:46.659Z,-2.95
2023-02-11T18:46:15.814Z,-2.92
2023-02-11T18:48:44.771Z,-2.95
2023-02-11T18:51:15.076Z,-2.91
2023-02-11T18:53:43.212Z,-2.88
2023-02-11T18:56:12.555Z,-2.83
2023-02-11T18:58:40.056Z,-2.85
2023-02-11T19:01:15.242Z,-2.81
2023-02-11T19:03:42.723Z,-2.83
2023-02-11T19:06:21.499Z,-2.80
2023-02-11T19:08:48.405Z,-2.82
2023-02-11T19:11:18.712Z,-2.81
2023-02-11T19:13:49.722Z,-2.82
2023-02-11T19:16:19.815Z,-2.82
2023-02-11T19:18:46.854Z,-2.81
2023-02-11T19:21:13.912Z,-2.80
2023-02-11T19:23:40.884Z,-2.80
2023-02-11T19:26:07.799Z,-2.77
2023-02-11T19:28:37.070Z,-2.77
2023-02-11T19:31:10.039Z,-2.73
2023-02-11T19:33:37.012Z,-2.77
2023-02-11T19:36:08.425Z,-2.75
2023-02-11T19:38:35.920Z,-2.75
2023-02-11T19:41:02.791Z,-2.72
2023-02-11T19:43:30.295Z,-2.68
2023-02-11T19:45:57.682Z,-2.70
2023-02-11T19:48:25.616Z,-2.68
2023-02-11T19:50:53.031Z,-2.69
2023-02-11T19:53:19.922Z,-2.70
2023-02-11T19:55:47.505Z,-2.67
2023-02-11T19:58:15.515Z,-2.68
2023-02-11T20:00:43.336Z,-2.67
2023-02-11T20:03:10.291Z,-2.67
2023-02-11T20:05:42.440Z,-2.66
2023-02-11T20:08:11.884Z,-2.67
2023-02-11T20:10:42.195Z,-2.63
2023-02-11T20:13:14.768Z,-2.63
2023-02-11T20:15:45.260Z,-2.65
2023-02-11T20:18:17.918Z,-2.64
2023-02-11T20:21:03.085Z,-2.63
2023-02-11T20:23:31.054Z,-2.66
2023-02-11T20:26:01.449Z,-2.65
2023-02-11T20:28:28.284Z,-2.61
2023-02-11T20:30:57.087Z,-2.62
2023-02-11T20:33:24.415Z,-2.61
2023-02-11T20:36:02.152Z,-2.56
2023-02-11T20:38:29.129Z,-2.59
2023-02-11T20:40:56.573Z,-2.59
2023-02-11T20:43:23.273Z,-2.60
2023-02-11T20:45:50.516Z,-2.58
2023-02-11T20:48:17.423Z,-2.59
2023-02-11T20:50:46.582Z,-2.60
2023-02-11T20:53:15.350Z,-2.59
2023-02-11T20:55:42.389Z,-2.57
2023-02-11T20:58:09.278Z,-2.56
2023-02-11T21:00:37.172Z,-2.58
2023-02-11T21:03:06.039Z,-2.60
2023-02-11T21:05:32.922Z,-2.58
2023-02-11T21:07:59.819Z,-2.54
2023-02-11T21:10:29.840Z,-2.54
2023-02-11T21:12:57.100Z,-2.52
2023-02-11T21:15:24.164Z,-2.53
2023-02-11T21:17:51.406Z,-2.48
2023-02-11T21:20:18.407Z,-2.48
2023-02-11T21:22:45.182Z,-2.50
2023-02-11T21:25:13.008Z,-2.48
2023-02-11T21:27:39.791Z,-2.45
2023-02-11T21:30:07.467Z,-2.45
2023-02-11T21:32:53.533Z,-2.45
2023-02-11T21:35:26.685Z,-2.47
2023-02-11T21:37:53.516Z,-2.46
2023-02-11T21:40:23.252Z,-2.46
2023-02-11T21:42:49.959Z,-2.45
2023-02-11T21:45:17.377Z,-2.42
2023-02-11T21:47:44.105Z,-2.40
2023-02-11T21:50:11.347Z,-2.40
2023-02-11T21:52:38.083Z,-2.39
2023-02-11T21:55:05.230Z,-2.35
2023-02-11T21:57:32.151Z,-2.34
2023-02-11T21:59:58.971Z,-2.33
2023-02-11T22:02:25.863Z,-2.35
2023-02-11T22:04:52.734Z,-2.34
2023-02-11T22:07:20.625Z,-2.34
2023-02-11T22:09:47.443Z,-2.32
2023-02-11T22:12:14.547Z,-2.33
2023-02-11T22:14:41.342Z,-2.32
2023-02-11T22:17:08.647Z,-2.36
2023-02-11T22:19:35.474Z,-2.34
2023-02-11T22:22:02.205Z,-2.32
2023-02-11T22:24:29.569Z,-2.32
2023-02-11T22:26:56.336Z,-2.33
2023-02-11T22:29:23.032Z,-2.26
2023-02-11T22:31:49.893Z,-2.27
2023-02-11T22:34:16.646Z,-2.25
2023-02-11T22:36:45.397Z,-2.21
2023-02-11T22:39:14.438Z,-2.19
2023-02-11T22:41:42.148Z,-2.22
2023-02-11T22:44:09.797Z,-2.23
2023-02-11T22:46:37.119Z,-2.21
2023-02-11T22:49:05.375Z,-2.18
2023-02-11T22:51:32.785Z,-2.15
2023-02-11T22:54:02.892Z,-2.15
2023-02-11T22:56:31.354Z,-2.11
2023-02-11T22:59:02.940Z,-2.11
2023-02-11T23:01:30.825Z,-2.15
2023-02-11T23:04:00.342Z,-2.14
2023-02-11T23:06:27.227Z,-2.15
2023-02-11T23:08:54.679Z,-2.13
2023-02-11T23:11:24.354Z,-2.08
2023-02-11T23:13:52.945Z,-2.05
2023-02-11T23:16:23.626Z,-2.00
2023-02-11T23:18:51.282Z,-1.93
2023-02-11T23:21:22.786Z,-1.92
2023-02-11T23:23:54.149Z,-1.90
2023-02-11T23:26:21.259Z,-1.89
2023-02-11T23:28:48.160Z,-1.87
2023-02-11T23:31:24.252Z,-1.83
2023-02-11T23:33:51.934Z,-1.82
2023-02-11T23:36:20.576Z,-1.80
2023-02-11T23:38:47.934Z,-1.79
2023-02-11T23:41:16.181Z,-1.79
2023-02-11T23:43:43.750Z,-1.78
2023-02-11T23:46:10.863Z,-1.74
2023-02-11T23:48:38.637Z,-1.73
2023-02-11T23:51:06.400Z,-1.69
2023-02-11T23:53:33.173Z,-1.67
2023-02-11T23:55:59.993Z,-1.67
2023-02-11T23:58:26.764Z,-1.63
